Country
Station

 

Weather  for  Fassberg  -  Germany    Germany

  
3 °C (37 °F)
    
 
 

Current METAR for Fassberg is :

ETHS 111920Z 34007KT 9999 SCT022 BKN035 03/01 Q1021 BLU

 

This is a report for Fassberg - Germany.
 
The report was made 7 minutes ago, at 19:20 UTC .
The wind was blowing at a speed of 3.6 meters per second (8.1 miles per hour) from north/northwest (340°).
 
The temperature was 3 °C (37 °F), with a dew-point at 1 °C (34 °F).
The temperature felt like -1 °C (31 °F).
 
The atmospheric pressure was 1021 hPa (30.15 inHg).
The relative humidity was 86.7%.
 
There were scattered clouds at a height of 671 meters (2200 feet) and broken clouds at a height of 1067 meters (3500 feet).
 
The overall visibility was greater than 10 kilometers (6.2 miles).
 

 
 
 
 

Country :   A   B   C   D   E   F   G   H   I   J   K   L   M   N   O   P   Q   R   S   T   U   V   W   Y   Z

 

Site Info  |  Disclaimer  |  Credits  |  Privacy
Contact us  |  Add to favorites
© 2013-2018 METARs - All rights reserved